Time;durP1;ratioP1;P1;durP2;ratioP2;P2;SDS_P1;SDS_P2;PMS_P1;PMS_P2;Temp;Humidity;BMP_temperature;BMP_pressure;BME280_temperature;BME280_humidity;BME280_pressure;Samples;Min_cycle;Max_cycle;Signal;HPM_P1;HPM_P2
2022/03/13 00:00:39;;;;;;;13.90;8.33;;;;;;;;;;4982156;28;20427;-53
2022/03/13 00:03:08;;;;;;;9.23;8.07;;;;;;;;;;4985493;28;20417;-53
2022/03/13 00:05:38;;;;;;;11.57;8.03;;;;;;;;;;4984980;28;20426;-53
2022/03/13 00:08:16;;;;;;;12.80;8.53;;;;;;;;;;4981061;28;20497;-54
2022/03/13 00:10:43;;;;;;;12.20;7.80;;;;;;;;;;4984049;28;20908;-53
2022/03/13 00:13:14;;;;;;;14.03;7.50;;;;;;;;;;4982224;28;20458;-54
2022/03/13 00:15:41;;;;;;;11.10;7.77;;;;;;;;;;4983260;28;20415;-54
2022/03/13 00:18:09;;;;;;;10.53;7.60;;;;;;;;;;4985356;28;20426;-54
2022/03/13 00:20:35;;;;;;;18.20;8.77;;;;;;;;;;4984208;28;20422;-54
2022/03/13 00:23:02;;;;;;;10.13;8.07;;;;;;;;;;4974865;28;20933;-54
2022/03/13 00:25:28;;;;;;;13.17;8.37;;;;;;;;;;4981631;28;20530;-54
2022/03/13 00:27:54;;;;;;;12.70;7.93;;;;;;;;;;4984791;28;20458;-53
2022/03/13 00:30:20;;;;;;;10.53;8.40;;;;;;;;;;4984982;28;20426;-53
2022/03/13 00:32:47;;;;;;;10.80;9.27;;;;;;;;;;4982919;28;20428;-52
2022/03/13 00:35:13;;;;;;;11.53;7.40;;;;;;;;;;4981577;28;20423;-53
2022/03/13 00:37:39;;;;;;;9.63;7.73;;;;;;;;;;4982255;28;20427;-54
2022/03/13 00:40:05;;;;;;;10.77;7.53;;;;;;;;;;4988123;28;20426;-53
2022/03/13 00:42:31;;;;;;;9.63;6.77;;;;;;;;;;4981538;28;20423;-53
2022/03/13 00:44:58;;;;;;;12.87;8.63;;;;;;;;;;4984794;28;20920;-54
2022/03/13 00:47:24;;;;;;;7.60;6.90;;;;;;;;;;4984445;28;20549;-54
2022/03/13 00:49:51;;;;;;;9.17;7.77;;;;;;;;;;4982162;28;20414;-53
2022/03/13 00:52:17;;;;;;;11.50;8.60;;;;;;;;;;4981174;28;20447;-54
2022/03/13 00:54:43;;;;;;;9.30;6.77;;;;;;;;;;4982829;28;20425;-54
2022/03/13 00:57:09;;;;;;;16.63;8.27;;;;;;;;;;4991761;28;20935;-54
2022/03/13 00:59:35;;;;;;;11.00;8.10;;;;;;;;;;4983858;28;20779;-54
2022/03/13 01:02:02;;;;;;;8.83;7.93;;;;;;;;;;4979713;28;20464;-54
2022/03/13 01:04:28;;;;;;;10.47;7.70;;;;;;;;;;4981064;28;20486;-53
2022/03/13 01:06:54;;;;;;;8.27;7.33;;;;;;;;;;4983753;28;20768;-54
2022/03/13 01:09:20;;;;;;;15.50;8.13;;;;;;;;;;4981818;28;20490;-54
2022/03/13 01:11:46;;;;;;;12.23;8.50;;;;;;;;;;4982873;28;20963;-53
2022/03/13 01:14:12;;;;;;;14.33;7.23;;;;;;;;;;4982001;28;20478;-54
2022/03/13 01:16:40;;;;;;;9.73;7.50;;;;;;;;;;4980601;28;20438;-53
2022/03/13 01:19:06;;;;;;;12.20;9.10;;;;;;;;;;4980818;28;20431;-54
2022/03/13 01:21:34;;;;;;;10.67;7.60;;;;;;;;;;4980679;28;20852;-54
2022/03/13 01:24:00;;;;;;;13.77;8.33;;;;;;;;;;4984003;28;20422;-54
2022/03/13 01:26:26;;;;;;;14.70;8.43;;;;;;;;;;4983951;28;20833;-53
2022/03/13 01:28:53;;;;;;;11.87;8.00;;;;;;;;;;4981173;28;20477;-54
2022/03/13 01:31:22;;;;;;;16.40;6.93;;;;;;;;;;4981075;28;20435;-54
2022/03/13 01:33:48;;;;;;;10.77;7.63;;;;;;;;;;4982701;28;20490;-53
2022/03/13 01:36:14;;;;;;;11.50;7.43;;;;;;;;;;4966287;28;20632;-52
2022/03/13 01:38:40;;;;;;;12.97;8.13;;;;;;;;;;4982573;28;20469;-53
2022/03/13 01:41:07;;;;;;;10.50;7.60;;;;;;;;;;4980238;28;20857;-53
2022/03/13 01:43:33;;;;;;;9.20;7.10;;;;;;;;;;4980590;28;20427;-53
2022/03/13 01:45:59;;;;;;;10.30;8.53;;;;;;;;;;4983644;28;20426;-54
2022/03/13 01:48:26;;;;;;;12.63;8.53;;;;;;;;;;4980248;28;20512;-53
2022/03/13 01:50:52;;;;;;;8.40;7.00;;;;;;;;;;4980068;28;20466;-53
2022/03/13 01:53:20;;;;;;;11.17;6.90;;;;;;;;;;4980253;28;20583;-53
2022/03/13 01:55:46;;;;;;;12.23;8.13;;;;;;;;;;4964619;28;20431;-54
2022/03/13 01:58:13;;;;;;;16.30;8.60;;;;;;;;;;4985934;28;20426;-52
2022/03/13 02:00:39;;;;;;;10.97;7.30;;;;;;;;;;4980955;28;20427;-53
2022/03/13 02:03:05;;;;;;;8.50;6.83;;;;;;;;;;4983072;28;20490;-53
2022/03/13 02:05:32;;;;;;;11.30;7.27;;;;;;;;;;4983373;28;20876;-53
2022/03/13 02:07:59;;;;;;;8.60;7.10;;;;;;;;;;4983210;28;20509;-54
2022/03/13 02:10:26;;;;;;;7.63;6.80;;;;;;;;;;4983400;28;20422;-53
2022/03/13 02:12:52;;;;;;;11.37;7.70;;;;;;;;;;4980520;28;20434;-53
2022/03/13 02:15:18;;;;;;;15.87;8.40;;;;;;;;;;4979947;28;20424;-52
2022/03/13 02:17:44;;;;;;;10.10;6.20;;;;;;;;;;4981319;28;20431;-53
2022/03/13 02:20:13;;;;;;;9.37;6.87;;;;;;;;;;4984896;28;20439;-52
2022/03/13 02:22:40;;;;;;;9.83;7.60;;;;;;;;;;4979720;28;20430;-52
2022/03/13 02:25:06;;;;;;;10.53;6.67;;;;;;;;;;4979833;28;20423;-53
2022/03/13 02:27:33;;;;;;;12.67;7.23;;;;;;;;;;4979810;28;20463;-53
2022/03/13 02:29:58;;;;;;;14.40;8.10;;;;;;;;;;4983317;28;20932;-54
2022/03/13 02:32:25;;;;;;;9.27;7.10;;;;;;;;;;4982801;28;20422;-53
2022/03/13 02:34:51;;;;;;;13.70;7.37;;;;;;;;;;4963077;28;20190;-53
2022/03/13 02:37:30;;;;;;;9.90;7.10;;;;;;;;;;4982467;28;20446;-54
2022/03/13 02:39:56;;;;;;;11.20;7.80;;;;;;;;;;4982922;28;20907;-53
2022/03/13 02:42:22;;;;;;;10.50;7.27;;;;;;;;;;4984021;28;20862;-54
2022/03/13 02:44:49;;;;;;;12.37;8.90;;;;;;;;;;4984747;28;20850;-54
2022/03/13 02:47:15;;;;;;;22.57;7.60;;;;;;;;;;4983179;28;20451;-53
2022/03/13 02:49:41;;;;;;;10.20;7.50;;;;;;;;;;4984872;28;20936;-54
2022/03/13 02:52:07;;;;;;;10.50;8.27;;;;;;;;;;4986435;28;20473;-53
2022/03/13 02:54:33;;;;;;;10.30;7.20;;;;;;;;;;4986395;28;20188;-53
2022/03/13 02:57:00;;;;;;;10.47;7.37;;;;;;;;;;4992946;28;20773;-52
2022/03/13 02:59:27;;;;;;;12.43;7.63;;;;;;;;;;4986544;28;20421;-53
2022/03/13 03:01:53;;;;;;;15.07;7.37;;;;;;;;;;4983563;28;21031;-53
2022/03/13 03:04:22;;;;;;;11.67;8.20;;;;;;;;;;4983178;28;20782;-54
2022/03/13 03:06:51;;;;;;;17.33;7.70;;;;;;;;;;4985328;28;20445;-53
2022/03/13 03:09:17;;;;;;;15.20;7.50;;;;;;;;;;4989937;28;20477;-53
2022/03/13 03:11:44;;;;;;;11.90;7.80;;;;;;;;;;4978365;28;20430;-53
2022/03/13 03:14:11;;;;;;;8.90;7.13;;;;;;;;;;4986281;28;20426;-53
2022/03/13 03:16:37;;;;;;;15.43;8.23;;;;;;;;;;4985310;28;20505;-53
2022/03/13 03:19:04;;;;;;;14.00;7.37;;;;;;;;;;4982829;28;20434;-53
2022/03/13 03:21:30;;;;;;;13.27;7.87;;;;;;;;;;4982992;28;21024;-53
2022/03/13 03:23:56;;;;;;;12.10;7.13;;;;;;;;;;4986020;28;20564;-53
2022/03/13 03:26:22;;;;;;;12.23;6.57;;;;;;;;;;4983860;28;20443;-52
2022/03/13 03:28:48;;;;;;;14.37;6.20;;;;;;;;;;4982483;28;20815;-53
2022/03/13 03:31:14;;;;;;;16.23;7.73;;;;;;;;;;4982529;28;20429;-53
2022/03/13 03:33:40;;;;;;;9.60;6.80;;;;;;;;;;4983913;28;20419;-53
2022/03/13 03:36:06;;;;;;;7.00;6.40;;;;;;;;;;4986115;28;20797;-54
2022/03/13 03:38:32;;;;;;;10.77;6.40;;;;;;;;;;4989685;28;20426;-54
2022/03/13 03:40:58;;;;;;;9.37;7.33;;;;;;;;;;4982708;28;20419;-53
2022/03/13 03:43:24;;;;;;;11.43;6.70;;;;;;;;;;4971314;28;20445;-53
2022/03/13 03:45:50;;;;;;;10.23;7.37;;;;;;;;;;4983242;28;20988;-53
2022/03/13 03:48:20;;;;;;;10.43;7.27;;;;;;;;;;4982174;28;20466;-53
2022/03/13 03:50:46;;;;;;;7.97;6.33;;;;;;;;;;4984221;28;20433;-54
2022/03/13 03:53:12;;;;;;;10.27;7.63;;;;;;;;;;4985532;28;20462;-53
2022/03/13 03:55:38;;;;;;;8.07;6.00;;;;;;;;;;4984151;28;20435;-53
2022/03/13 03:58:04;;;;;;;8.90;7.23;;;;;;;;;;4988278;28;20572;-53
2022/03/13 04:00:30;;;;;;;7.20;6.03;;;;;;;;;;4989550;28;20489;-54
2022/03/13 04:02:56;;;;;;;9.23;6.40;;;;;;;;;;4982220;28;20459;-54
2022/03/13 04:05:23;;;;;;;10.63;7.50;;;;;;;;;;4982102;28;20881;-52
2022/03/13 04:07:49;;;;;;;10.07;6.73;;;;;;;;;;4970703;28;20571;-54
2022/03/13 04:10:15;;;;;;;9.17;6.20;;;;;;;;;;4985367;28;20468;-53
2022/03/13 04:12:41;;;;;;;12.40;6.83;;;;;;;;;;4984038;28;20458;-54
2022/03/13 04:15:07;;;;;;;6.57;5.90;;;;;;;;;;4981775;28;20514;-55
2022/03/13 04:17:34;;;;;;;10.13;6.57;;;;;;;;;;4989941;28;20500;-53
2022/03/13 04:20:00;;;;;;;13.27;6.03;;;;;;;;;;4982048;28;20434;-54
2022/03/13 04:22:27;;;;;;;7.00;5.47;;;;;;;;;;4981822;28;20466;-54
2022/03/13 04:24:54;;;;;;;7.97;6.30;;;;;;;;;;4967128;28;20426;-53
2022/03/13 04:27:20;;;;;;;8.73;6.23;;;;;;;;;;4985428;28;20974;-54
2022/03/13 04:29:46;;;;;;;7.47;5.57;;;;;;;;;;4983121;28;20418;-53
2022/03/13 04:32:12;;;;;;;8.00;6.10;;;;;;;;;;4986605;28;20434;-54
2022/03/13 04:34:38;;;;;;;9.00;6.33;;;;;;;;;;4984034;28;20551;-53
2022/03/13 04:37:05;;;;;;;9.67;5.93;;;;;;;;;;4981609;28;20451;-53
2022/03/13 04:39:35;;;;;;;8.33;7.07;;;;;;;;;;4981479;28;20780;-53
2022/03/13 04:42:05;;;;;;;8.70;6.30;;;;;;;;;;4984957;28;20422;-53
2022/03/13 04:44:32;;;;;;;7.50;5.80;;;;;;;;;;4984845;28;20453;-53
2022/03/13 04:46:58;;;;;;;9.23;7.00;;;;;;;;;;4992409;28;20431;-53
2022/03/13 04:49:24;;;;;;;7.10;6.40;;;;;;;;;;4984588;28;20528;-54
2022/03/13 04:51:50;;;;;;;9.03;5.40;;;;;;;;;;4981936;28;20418;-54
2022/03/13 04:54:17;;;;;;;6.83;6.13;;;;;;;;;;4963978;28;20514;-53
2022/03/13 04:56:44;;;;;;;8.83;6.57;;;;;;;;;;4989181;28;20186;-54
2022/03/13 04:59:10;;;;;;;8.70;7.07;;;;;;;;;;4984537;28;20438;-53
2022/03/13 05:01:36;;;;;;;9.57;7.33;;;;;;;;;;4984391;28;20916;-53
2022/03/13 05:04:03;;;;;;;6.43;5.83;;;;;;;;;;4986073;28;20443;-52
2022/03/13 05:06:29;;;;;;;11.37;6.87;;;;;;;;;;4979790;28;20947;-53
2022/03/13 05:08:55;;;;;;;8.77;6.23;;;;;;;;;;4980835;28;20462;-54
2022/03/13 05:11:21;;;;;;;12.30;5.83;;;;;;;;;;4981288;28;20415;-53
2022/03/13 05:13:47;;;;;;;6.40;5.73;;;;;;;;;;4983081;28;20423;-53
2022/03/13 05:16:13;;;;;;;7.90;5.93;;;;;;;;;;4984007;28;20509;-54
2022/03/13 05:18:39;;;;;;;10.00;6.30;;;;;;;;;;4983837;28;20430;-54
2022/03/13 05:21:05;;;;;;;6.40;5.80;;;;;;;;;;4984179;28;20429;-53
2022/03/13 05:23:31;;;;;;;10.20;6.60;;;;;;;;;;4983882;28;20528;-54
2022/03/13 05:25:57;;;;;;;7.30;6.07;;;;;;;;;;4980643;28;20506;-54
2022/03/13 05:28:23;;;;;;;9.13;6.63;;;;;;;;;;4980614;28;20234;-53
2022/03/13 05:30:49;;;;;;;6.73;5.63;;;;;;;;;;4982816;28;20902;-53
2022/03/13 05:33:16;;;;;;;6.40;5.80;;;;;;;;;;4966039;28;20798;-54
2022/03/13 05:35:42;;;;;;;24.80;6.00;;;;;;;;;;4983722;28;20436;-54
2022/03/13 05:38:08;;;;;;;8.10;6.43;;;;;;;;;;4983853;28;20466;-54
2022/03/13 05:40:36;;;;;;;10.67;7.27;;;;;;;;;;4983247;28;20796;-54
2022/03/13 05:43:03;;;;;;;10.00;6.13;;;;;;;;;;4962929;28;20941;-54
2022/03/13 05:45:30;;;;;;;8.07;6.60;;;;;;;;;;4980307;28;20427;-54
2022/03/13 05:47:57;;;;;;;13.73;6.30;;;;;;;;;;4983332;28;20470;-55
2022/03/13 05:50:25;;;;;;;10.57;6.10;;;;;;;;;;4982991;28;20431;-53
2022/03/13 05:52:52;;;;;;;6.60;5.23;;;;;;;;;;4983561;28;20550;-53
2022/03/13 05:55:19;;;;;;;16.57;6.17;;;;;;;;;;4983063;28;20422;-53
2022/03/13 05:57:45;;;;;;;6.20;5.60;;;;;;;;;;4970214;28;20791;-54
2022/03/13 06:00:13;;;;;;;9.33;5.90;;;;;;;;;;4979947;28;20434;-53
2022/03/13 06:02:40;;;;;;;7.80;5.67;;;;;;;;;;4981052;28;20429;-54
2022/03/13 06:05:07;;;;;;;8.40;6.20;;;;;;;;;;4986430;28;20446;-54
2022/03/13 06:07:34;;;;;;;6.90;6.20;;;;;;;;;;4957514;28;20507;-53
2022/03/13 06:10:03;;;;;;;6.97;6.27;;;;;;;;;;4983301;28;20427;-53
2022/03/13 06:12:30;;;;;;;7.20;5.93;;;;;;;;;;4965855;28;20529;-54
2022/03/13 06:14:56;;;;;;;5.60;5.00;;;;;;;;;;4979827;28;20870;-53
2022/03/13 06:17:22;;;;;;;6.27;5.27;;;;;;;;;;4981742;28;20427;-53
2022/03/13 06:19:48;;;;;;;9.00;6.63;;;;;;;;;;4983650;28;20789;-53
2022/03/13 06:22:14;;;;;;;6.33;5.33;;;;;;;;;;4982781;28;20513;-53
2022/03/13 06:24:40;;;;;;;12.37;6.00;;;;;;;;;;4974970;28;20216;-54
2022/03/13 06:27:07;;;;;;;6.40;5.80;;;;;;;;;;4983785;28;20443;-55
2022/03/13 06:29:33;;;;;;;8.33;5.70;;;;;;;;;;4979896;28;20442;-53
2022/03/13 06:31:59;;;;;;;9.33;5.27;;;;;;;;;;4988141;28;20422;-53
2022/03/13 06:34:26;;;;;;;7.80;5.77;;;;;;;;;;4983071;28;20552;-53
2022/03/13 06:36:52;;;;;;;8.90;5.73;;;;;;;;;;4980905;28;20424;-54
2022/03/13 06:39:18;;;;;;;6.47;5.83;;;;;;;;;;4985722;28;20434;-54
2022/03/13 06:41:44;;;;;;;6.80;6.10;;;;;;;;;;4988958;28;20442;-53
2022/03/13 06:44:10;;;;;;;6.93;6.13;;;;;;;;;;4988183;28;20445;-54
2022/03/13 06:46:36;;;;;;;5.53;5.03;;;;;;;;;;4988990;28;20429;-54
2022/03/13 06:49:05;;;;;;;5.73;5.07;;;;;;;;;;4988791;28;20885;-54
2022/03/13 06:51:32;;;;;;;8.20;6.20;;;;;;;;;;4987574;28;20437;-54
2022/03/13 06:53:58;;;;;;;5.40;4.90;;;;;;;;;;4988265;28;20540;-55
2022/03/13 06:56:24;;;;;;;8.87;6.27;;;;;;;;;;4972479;28;20541;-53
2022/03/13 06:58:51;;;;;;;6.80;5.50;;;;;;;;;;4985968;28;20442;-55
2022/03/13 07:01:17;;;;;;;6.13;5.63;;;;;;;;;;4981952;28;20443;-55
2022/03/13 07:03:43;;;;;;;7.83;6.20;;;;;;;;;;4983162;28;20881;-55
2022/03/13 07:06:09;;;;;;;5.60;5.00;;;;;;;;;;4985738;28;20541;-54
2022/03/13 07:08:35;;;;;;;6.57;5.77;;;;;;;;;;4984822;28;20554;-54
2022/03/13 07:11:01;;;;;;;7.90;5.90;;;;;;;;;;4984822;28;20634;-54
2022/03/13 07:13:33;;;;;;;7.83;5.00;;;;;;;;;;4988558;28;20441;-54
2022/03/13 07:16:03;;;;;;;6.50;5.87;;;;;;;;;;4983264;28;20453;-54
2022/03/13 07:18:30;;;;;;;5.83;5.30;;;;;;;;;;4983267;28;20463;-56
2022/03/13 07:20:56;;;;;;;9.97;5.63;;;;;;;;;;4981190;28;20529;-56
2022/03/13 07:23:22;;;;;;;7.27;5.57;;;;;;;;;;4965276;28;20454;-55
2022/03/13 07:25:52;;;;;;;8.00;5.97;;;;;;;;;;4983572;28;20797;-58
2022/03/13 07:28:18;;;;;;;7.77;5.30;;;;;;;;;;4982067;28;20557;-57
2022/03/13 07:30:44;;;;;;;10.30;6.27;;;;;;;;;;4986781;28;20445;-56
2022/03/13 07:33:10;;;;;;;6.50;5.20;;;;;;;;;;4984452;28;20462;-53
2022/03/13 07:35:37;;;;;;;7.33;4.30;;;;;;;;;;4984995;28;20431;-56
2022/03/13 07:38:03;;;;;;;6.40;5.70;;;;;;;;;;4988901;28;20846;-55
2022/03/13 07:40:29;;;;;;;5.70;5.13;;;;;;;;;;4989422;28;20493;-55
2022/03/13 07:42:56;;;;;;;9.93;5.93;;;;;;;;;;4982616;28;20427;-54
2022/03/13 07:45:24;;;;;;;5.53;4.80;;;;;;;;;;4982306;28;20442;-56
2022/03/13 07:47:50;;;;;;;5.20;4.70;;;;;;;;;;4990752;28;20462;-57
2022/03/13 07:50:16;;;;;;;5.30;4.80;;;;;;;;;;4983761;28;20510;-55
2022/03/13 07:52:42;;;;;;;9.37;5.37;;;;;;;;;;4984727;28;20481;-55
2022/03/13 07:55:09;;;;;;;5.60;5.07;;;;;;;;;;4986976;28;20442;-55
2022/03/13 07:57:35;;;;;;;14.30;5.43;;;;;;;;;;4992476;28;20784;-54
2022/03/13 08:00:01;;;;;;;10.33;5.83;;;;;;;;;;4983420;28;20529;-55
2022/03/13 08:02:28;;;;;;;8.53;5.20;;;;;;;;;;4986989;28;20549;-54
2022/03/13 08:04:54;;;;;;;5.10;4.67;;;;;;;;;;4990639;28;20824;-54
2022/03/13 08:07:20;;;;;;;6.43;5.13;;;;;;;;;;4987090;28;20442;-54
2022/03/13 08:09:46;;;;;;;7.40;4.97;;;;;;;;;;4982972;28;20439;-55
2022/03/13 08:12:12;;;;;;;7.07;5.37;;;;;;;;;;4985293;28;20435;-54
2022/03/13 08:14:38;;;;;;;5.13;4.63;;;;;;;;;;4988224;28;20441;-55
2022/03/13 08:17:04;;;;;;;5.73;5.23;;;;;;;;;;4988217;28;20430;-54
2022/03/13 08:19:30;;;;;;;11.13;5.10;;;;;;;;;;4981677;28;20435;-53
2022/03/13 08:21:56;;;;;;;8.87;5.67;;;;;;;;;;4988803;28;20448;-54
2022/03/13 08:24:23;;;;;;;6.60;5.20;;;;;;;;;;4988577;28;20443;-52
2022/03/13 08:26:49;;;;;;;6.00;5.47;;;;;;;;;;4991336;28;20434;-52
2022/03/13 08:29:15;;;;;;;5.90;4.60;;;;;;;;;;4988476;28;20587;-52
2022/03/13 08:31:41;;;;;;;10.77;5.20;;;;;;;;;;4985550;28;20439;-53
2022/03/13 08:34:08;;;;;;;6.60;5.90;;;;;;;;;;4992191;28;20434;-54
2022/03/13 08:36:40;;;;;;;8.33;5.33;;;;;;;;;;4991083;28;20766;-52
2022/03/13 08:39:07;;;;;;;4.90;4.43;;;;;;;;;;4990867;28;20500;-52
2022/03/13 08:41:34;;;;;;;5.93;4.73;;;;;;;;;;4986875;28;20462;-53
2022/03/13 08:44:00;;;;;;;9.93;7.33;;;;;;;;;;4986764;28;20441;-52
2022/03/13 08:46:26;;;;;;;5.90;5.40;;;;;;;;;;4985060;28;20447;-51
2022/03/13 08:48:52;;;;;;;7.00;5.30;;;;;;;;;;4986354;28;20473;-54
2022/03/13 08:51:19;;;;;;;8.10;4.60;;;;;;;;;;4984163;28;20434;-54
2022/03/13 08:53:46;;;;;;;7.57;5.20;;;;;;;;;;4987376;28;20536;-55
2022/03/13 08:56:13;;;;;;;10.00;6.70;;;;;;;;;;4987097;28;20444;-56
2022/03/13 08:58:42;;;;;;;6.57;5.10;;;;;;;;;;4985224;28;20835;-57
2022/03/13 09:01:09;;;;;;;6.10;5.33;;;;;;;;;;4972094;28;21010;-57
2022/03/13 09:03:36;;;;;;;6.27;5.10;;;;;;;;;;4983889;28;20445;-55
2022/03/13 09:06:03;;;;;;;5.90;4.80;;;;;;;;;;4986067;28;20429;-56
2022/03/13 09:08:29;;;;;;;8.67;5.97;;;;;;;;;;4988467;28;20466;-55
2022/03/13 09:10:56;;;;;;;5.83;5.27;;;;;;;;;;4987607;28;20445;-56
2022/03/13 09:13:22;;;;;;;5.67;5.10;;;;;;;;;;4983450;28;20493;-55
2022/03/13 09:15:48;;;;;;;6.23;5.53;;;;;;;;;;4988627;28;20439;-55
2022/03/13 09:18:14;;;;;;;8.40;5.07;;;;;;;;;;4988160;28;20438;-55
2022/03/13 09:20:40;;;;;;;6.40;4.90;;;;;;;;;;4984029;28;20432;-55
2022/03/13 09:23:07;;;;;;;8.40;5.00;;;;;;;;;;4966640;28;20472;-55
2022/03/13 09:25:34;;;;;;;5.73;4.67;;;;;;;;;;4966315;28;20840;-55
2022/03/13 09:28:00;;;;;;;5.43;5.03;;;;;;;;;;4979525;28;20491;-55
2022/03/13 09:30:26;;;;;;;6.87;6.10;;;;;;;;;;4980658;28;20423;-55
2022/03/13 09:32:52;;;;;;;5.80;5.37;;;;;;;;;;4983305;28;20488;-55
2022/03/13 09:35:18;;;;;;;5.20;4.83;;;;;;;;;;4983673;28;20943;-54
2022/03/13 09:37:44;;;;;;;6.87;6.17;;;;;;;;;;4979877;28;20493;-55
2022/03/13 09:40:12;;;;;;;6.50;5.47;;;;;;;;;;4966521;28;20852;-56
2022/03/13 09:42:38;;;;;;;6.90;5.80;;;;;;;;;;4983334;28;20489;-55
2022/03/13 09:45:04;;;;;;;4.63;4.20;;;;;;;;;;4983597;28;20510;-56
2022/03/13 09:47:31;;;;;;;7.67;5.00;;;;;;;;;;4983692;28;20975;-56
2022/03/13 09:49:57;;;;;;;8.47;5.63;;;;;;;;;;4980227;28;20778;-55
2022/03/13 09:52:23;;;;;;;6.60;5.13;;;;;;;;;;4979605;28;20863;-55
2022/03/13 09:54:49;;;;;;;6.17;5.57;;;;;;;;;;4982529;28;20790;-55
2022/03/13 09:57:17;;;;;;;5.50;5.00;;;;;;;;;;4989938;28;20478;-55
2022/03/13 09:59:43;;;;;;;5.50;5.00;;;;;;;;;;4982946;28;20426;-55
2022/03/13 10:02:09;;;;;;;6.27;5.67;;;;;;;;;;4983499;28;20430;-55
2022/03/13 10:04:35;;;;;;;11.83;5.90;;;;;;;;;;4982912;28;20426;-55
2022/03/13 10:07:03;;;;;;;6.70;5.30;;;;;;;;;;4980014;28;20427;-55
2022/03/13 10:09:29;;;;;;;6.03;5.27;;;;;;;;;;4979889;28;20485;-54
2022/03/13 10:12:05;;;;;;;7.43;5.43;;;;;;;;;;4983057;28;20422;-54
2022/03/13 10:14:31;;;;;;;7.40;6.67;;;;;;;;;;4983574;28;20425;-55
2022/03/13 10:16:57;;;;;;;5.60;5.10;;;;;;;;;;4970147;28;20423;-55
2022/03/13 10:19:24;;;;;;;5.93;5.33;;;;;;;;;;4978832;28;20533;-55
2022/03/13 10:22:07;;;;;;;6.53;6.03;;;;;;;;;;4981149;28;20440;-55
2022/03/13 10:24:41;;;;;;;8.23;5.27;;;;;;;;;;4980094;28;20914;-55
2022/03/13 10:27:15;;;;;;;8.50;5.27;;;;;;;;;;4973181;28;20437;-55
2022/03/13 10:29:42;;;;;;;8.37;6.10;;;;;;;;;;4974846;28;20439;-55
2022/03/13 10:32:09;;;;;;;7.93;6.50;;;;;;;;;;4983199;28;20939;-54
2022/03/13 10:34:35;;;;;;;5.67;5.07;;;;;;;;;;4982749;28;20423;-55
2022/03/13 10:37:02;;;;;;;8.37;6.47;;;;;;;;;;4979865;28;20508;-55
2022/03/13 10:39:29;;;;;;;6.60;5.93;;;;;;;;;;4979951;28;20469;-55
2022/03/13 10:41:59;;;;;;;6.97;5.87;;;;;;;;;;4969370;28;20422;-55
2022/03/13 10:44:25;;;;;;;6.67;5.67;;;;;;;;;;4972927;28;20462;-54
2022/03/13 10:47:19;;;;;;;6.90;6.00;;;;;;;;;;4980571;28;20800;-55
2022/03/13 10:49:46;;;;;;;5.33;4.90;;;;;;;;;;4969872;28;20440;-54
2022/03/13 10:52:26;;;;;;;6.23;5.60;;;;;;;;;;4987329;28;20787;-54
2022/03/13 10:54:53;;;;;;;8.23;6.90;;;;;;;;;;4973053;28;20911;-54
2022/03/13 10:57:19;;;;;;;6.57;5.40;;;;;;;;;;4989935;28;20433;-53
2022/03/13 10:59:46;;;;;;;6.73;6.03;;;;;;;;;;4982652;28;20434;-56
2022/03/13 11:02:13;;;;;;;9.90;5.93;;;;;;;;;;4986334;28;20435;-56
2022/03/13 11:04:46;;;;;;;9.30;6.40;;;;;;;;;;4985324;28;20474;-55
2022/03/13 11:07:13;;;;;;;7.40;5.30;;;;;;;;;;4985177;28;20421;-55
2022/03/13 11:09:39;;;;;;;5.23;4.80;;;;;;;;;;4984443;28;20552;-55
2022/03/13 11:12:09;;;;;;;6.97;4.80;;;;;;;;;;4978898;28;20492;-56
2022/03/13 11:14:36;;;;;;;5.40;5.00;;;;;;;;;;4983922;28;20526;-55
2022/03/13 11:17:02;;;;;;;6.10;5.50;;;;;;;;;;4986550;28;20426;-53
2022/03/13 11:19:29;;;;;;;8.87;5.90;;;;;;;;;;4986622;28;20944;-51
2022/03/13 11:21:55;;;;;;;5.37;4.97;;;;;;;;;;4985834;28;20955;-52
2022/03/13 11:24:23;;;;;;;5.90;5.37;;;;;;;;;;4986312;28;20937;-54
2022/03/13 11:26:51;;;;;;;5.30;4.80;;;;;;;;;;4975489;28;20438;-53
2022/03/13 11:29:36;;;;;;;6.20;4.90;;;;;;;;;;4992244;28;20477;-55
2022/03/13 11:32:22;;;;;;;5.00;4.50;;;;;;;;;;4984667;28;20423;-62
2022/03/13 11:35:07;;;;;;;5.70;5.30;;;;;;;;;;4985502;28;20423;-54
2022/03/13 11:37:33;;;;;;;5.47;5.00;;;;;;;;;;4981668;28;20929;-55
2022/03/13 11:40:00;;;;;;;5.87;5.40;;;;;;;;;;4985984;28;20553;-55
2022/03/13 11:42:26;;;;;;;6.93;6.23;;;;;;;;;;4985483;28;20426;-54
2022/03/13 11:44:52;;;;;;;6.67;6.07;;;;;;;;;;4985666;28;20433;-54
2022/03/13 11:47:23;;;;;;;6.57;5.93;;;;;;;;;;4985469;28;20489;-56
2022/03/13 11:49:49;;;;;;;6.20;5.70;;;;;;;;;;4975137;28;20855;-55
2022/03/13 11:52:20;;;;;;;7.20;5.53;;;;;;;;;;4968159;28;20545;-55
2022/03/13 11:55:03;;;;;;;4.97;4.60;;;;;;;;;;4983569;28;20430;-55
2022/03/13 11:57:41;;;;;;;6.30;5.70;;;;;;;;;;4989818;28;21079;-57
2022/03/13 12:00:30;;;;;;;5.50;5.00;;;;;;;;;;4987055;28;20424;-57
2022/03/13 12:03:11;;;;;;;6.10;5.53;;;;;;;;;;4985264;28;20465;-55
2022/03/13 12:05:47;;;;;;;6.77;6.13;;;;;;;;;;4984689;28;20422;-56
2022/03/13 12:08:16;;;;;;;6.23;5.73;;;;;;;;;;4982670;28;20894;-57
2022/03/13 12:10:43;;;;;;;5.87;5.40;;;;;;;;;;4985234;28;20426;-56
2022/03/13 12:13:10;;;;;;;6.03;5.00;;;;;;;;;;4983025;28;20419;-55
2022/03/13 12:15:37;;;;;;;18.07;6.63;;;;;;;;;;4983225;28;20419;-56
2022/03/13 12:18:21;;;;;;;10.57;6.20;;;;;;;;;;4986409;28;20427;-56
2022/03/13 12:20:48;;;;;;;6.83;6.00;;;;;;;;;;4973380;28;20791;-56
2022/03/13 12:23:27;;;;;;;8.23;6.70;;;;;;;;;;4982519;28;20510;-57
2022/03/13 12:25:54;;;;;;;7.03;6.30;;;;;;;;;;4985733;28;20963;-57
2022/03/13 12:28:33;;;;;;;10.77;6.23;;;;;;;;;;4985929;28;20465;-55
2022/03/13 12:31:00;;;;;;;7.50;6.80;;;;;;;;;;4986623;28;20430;-56
2022/03/13 12:33:27;;;;;;;6.20;5.63;;;;;;;;;;4986088;28;20472;-56
2022/03/13 12:35:55;;;;;;;11.03;7.47;;;;;;;;;;4985590;28;21201;-56
2022/03/13 12:38:27;;;;;;;8.10;7.27;;;;;;;;;;4989606;28;20421;-56
2022/03/13 12:40:53;;;;;;;9.50;8.00;;;;;;;;;;4983084;28;20467;-56
2022/03/13 12:43:20;;;;;;;8.77;7.87;;;;;;;;;;4982459;28;20505;-56
2022/03/13 12:45:52;;;;;;;9.93;8.00;;;;;;;;;;4984266;28;20427;-56
2022/03/13 12:48:18;;;;;;;7.17;6.47;;;;;;;;;;4985754;28;20458;-56
2022/03/13 12:50:47;;;;;;;8.90;7.90;;;;;;;;;;4984150;28;20426;-55
2022/03/13 12:53:21;;;;;;;9.40;7.47;;;;;;;;;;4981597;28;20943;-60
2022/03/13 12:55:54;;;;;;;10.20;7.47;;;;;;;;;;4982922;28;20445;-55
2022/03/13 12:58:20;;;;;;;9.20;7.63;;;;;;;;;;4973186;28;20434;-55
2022/03/13 13:00:47;;;;;;;10.33;7.40;;;;;;;;;;4985269;28;20472;-56
2022/03/13 13:03:13;;;;;;;7.30;6.60;;;;;;;;;;4985648;28;20426;-55
2022/03/13 13:05:48;;;;;;;10.13;7.37;;;;;;;;;;4984549;28;20930;-55
2022/03/13 13:08:14;;;;;;;13.73;6.93;;;;;;;;;;4983338;28;20461;-55
2022/03/13 13:10:41;;;;;;;10.50;6.93;;;;;;;;;;4984263;28;20414;-55
2022/03/13 13:13:08;;;;;;;8.23;7.43;;;;;;;;;;4981956;28;20469;-54
2022/03/13 13:15:34;;;;;;;12.33;7.53;;;;;;;;;;4982304;28;20415;-56
2022/03/13 13:18:01;;;;;;;8.43;7.43;;;;;;;;;;4989330;28;20491;-56
2022/03/13 13:20:27;;;;;;;8.10;7.30;;;;;;;;;;4981530;28;20431;-55
2022/03/13 13:23:07;;;;;;;9.07;7.10;;;;;;;;;;4984404;28;20471;-55
2022/03/13 13:25:34;;;;;;;10.27;7.23;;;;;;;;;;4984958;28;20422;-54
2022/03/13 13:28:02;;;;;;;14.47;8.50;;;;;;;;;;4981852;28;20458;-54
2022/03/13 13:30:31;;;;;;;12.37;8.00;;;;;;;;;;4984452;28;20488;-55
2022/03/13 13:33:03;;;;;;;10.03;7.67;;;;;;;;;;4981511;28;20411;-55
2022/03/13 13:35:31;;;;;;;13.80;9.80;;;;;;;;;;4981821;28;20889;-56
2022/03/13 13:37:59;;;;;;;10.37;8.43;;;;;;;;;;4984498;28;20427;-55
2022/03/13 13:40:27;;;;;;;15.87;9.10;;;;;;;;;;4967492;28;20799;-55
2022/03/13 13:42:54;;;;;;;10.07;8.33;;;;;;;;;;4979010;28;20418;-54
2022/03/13 13:45:30;;;;;;;10.47;8.30;;;;;;;;;;4984039;28;20472;-55
2022/03/13 13:48:15;;;;;;;12.13;7.20;;;;;;;;;;4983266;28;20464;-56
2022/03/13 13:50:42;;;;;;;10.00;7.37;;;;;;;;;;4990018;28;20962;-56
2022/03/13 13:53:08;;;;;;;10.67;7.23;;;;;;;;;;4985202;28;20983;-57
2022/03/13 13:55:35;;;;;;;8.90;6.90;;;;;;;;;;4969039;28;20839;-57
2022/03/13 13:58:20;;;;;;;12.40;7.70;;;;;;;;;;4986857;28;20418;-58
2022/03/13 14:00:46;;;;;;;10.90;7.47;;;;;;;;;;4986018;28;20488;-56
2022/03/13 14:03:16;;;;;;;10.00;7.23;;;;;;;;;;4968404;28;20897;-56
2022/03/13 14:05:42;;;;;;;8.43;7.57;;;;;;;;;;4965372;28;20451;-56
2022/03/13 14:08:08;;;;;;;9.43;7.53;;;;;;;;;;4985125;28;20979;-55
2022/03/13 14:10:35;;;;;;;11.67;8.37;;;;;;;;;;4981546;28;20526;-52
2022/03/13 14:13:01;;;;;;;13.30;9.67;;;;;;;;;;4988371;28;20430;-54
2022/03/13 14:15:31;;;;;;;9.70;7.43;;;;;;;;;;4981985;28;20466;-53
2022/03/13 14:17:59;;;;;;;17.03;8.57;;;;;;;;;;4986469;28;20438;-54
2022/03/13 14:20:25;;;;;;;8.27;7.47;;;;;;;;;;4985599;28;20493;-51
2022/03/13 14:22:51;;;;;;;10.60;9.00;;;;;;;;;;4971453;28;21020;-53
2022/03/13 14:25:17;;;;;;;16.90;7.67;;;;;;;;;;4983594;28;20526;-52
2022/03/13 14:27:43;;;;;;;10.73;8.43;;;;;;;;;;4981778;28;20194;-53
2022/03/13 14:30:09;;;;;;;12.03;7.87;;;;;;;;;;4983470;28;20430;-53
2022/03/13 14:32:36;;;;;;;8.03;7.20;;;;;;;;;;4989715;28;20451;-53
2022/03/13 14:35:03;;;;;;;11.30;8.43;;;;;;;;;;4981908;28;20439;-54
2022/03/13 14:37:29;;;;;;;11.33;7.93;;;;;;;;;;4982682;28;20844;-53
2022/03/13 14:39:55;;;;;;;10.03;8.23;;;;;;;;;;4993352;28;20434;-53